sensor_id;sensor_type;location;lat;lon;timestamp;pressure;altitude;pressure_sealevel;temperature;humidity
8477;BME280;4275;42.854;23.222;2022-08-19T00:01:57;81632.50;;;-141.02;81.46
8477;BME280;4275;42.854;23.222;2022-08-19T00:04:27;81686.88;;;-141.02;82.76
8477;BME280;4275;42.854;23.222;2022-08-19T00:06:55;81679.09;;;-141.02;83.55
8477;BME280;4275;42.854;23.222;2022-08-19T00:09:23;81677.16;;;-141.02;84.60
8477;BME280;4275;42.854;23.222;2022-08-19T00:11:50;81669.41;;;-141.02;85.79
8477;BME280;4275;42.854;23.222;2022-08-19T00:14:18;81700.47;;;-141.02;86.81
8477;BME280;4275;42.854;23.222;2022-08-19T00:16:48;81683.00;;;-141.02;87.76
8477;BME280;4275;42.854;23.222;2022-08-19T00:19:17;81706.28;;;-141.02;88.49
8477;BME280;4275;42.854;23.222;2022-08-19T00:21:44;81725.72;;;-141.02;88.49
8477;BME280;4275;42.854;23.222;2022-08-19T00:24:13;81686.88;;;-141.02;87.44
8477;BME280;4275;42.854;23.222;2022-08-19T00:26:41;81698.53;;;-141.02;85.43
8477;BME280;4275;42.854;23.222;2022-08-19T00:29:10;81640.28;;;-141.02;84.87
8477;BME280;4275;42.854;23.222;2022-08-19T00:31:37;81640.28;;;-141.02;82.75
8477;BME280;4275;42.854;23.222;2022-08-19T00:34:06;81628.63;;;-141.02;81.00
8477;BME280;4275;42.854;23.222;2022-08-19T00:36:33;81605.31;;;-141.02;80.66
8477;BME280;4275;42.854;23.222;2022-08-19T00:39:00;81593.66;;;-141.02;81.15
8477;BME280;4275;42.854;23.222;2022-08-19T00:41:28;81628.63;;;-141.02;82.09
8477;BME280;4275;42.854;23.222;2022-08-19T00:44:03;81632.50;;;-141.02;82.83
8477;BME280;4275;42.854;23.222;2022-08-19T00:46:32;81655.81;;;-141.02;82.80
8477;BME280;4275;42.854;23.222;2022-08-19T00:49:03;81651.91;;;-141.02;83.70
8477;BME280;4275;42.854;23.222;2022-08-19T00:51:34;81683.00;;;-141.02;84.08
8477;BME280;4275;42.854;23.222;2022-08-19T00:54:03;81506.28;;;-141.02;85.53
8477;BME280;4275;42.854;23.222;2022-08-19T00:56:30;81694.63;;;-141.02;86.48
8477;BME280;4275;42.854;23.222;2022-08-19T00:58:58;81706.28;;;-141.02;86.58
8477;BME280;4275;42.854;23.222;2022-08-19T01:01:27;81690.75;;;-141.02;87.47
8477;BME280;4275;42.854;23.222;2022-08-19T01:03:54;81698.53;;;-141.02;87.14
8477;BME280;4275;42.854;23.222;2022-08-19T01:06:21;81754.84;;;-141.02;89.30
8477;BME280;4275;42.854;23.222;2022-08-19T01:08:49;81766.50;;;-141.02;92.02
8477;BME280;4275;42.854;23.222;2022-08-19T01:11:17;81803.38;;;-141.02;93.21
8477;BME280;4275;42.854;23.222;2022-08-19T01:13:44;81807.25;;;-141.02;95.01
8477;BME280;4275;42.854;23.222;2022-08-19T01:16:13;81811.16;;;-141.02;96.55
8477;BME280;4275;42.854;23.222;2022-08-19T01:18:42;81848.03;;;-141.02;96.76
8477;BME280;4275;42.854;23.222;2022-08-19T01:21:12;81818.91;;;-141.02;97.60
8477;BME280;4275;42.854;23.222;2022-08-19T01:23:45;81838.34;;;-141.02;97.49
8477;BME280;4275;42.854;23.222;2022-08-19T01:26:15;81807.25;;;-141.02;97.18
8477;BME280;4275;42.854;23.222;2022-08-19T01:28:45;81820.84;;;-141.02;98.02
8477;BME280;4275;42.854;23.222;2022-08-19T01:31:15;81838.34;;;-141.02;98.76
8477;BME280;4275;42.854;23.222;2022-08-19T01:33:42;81867.47;;;-141.02;100.00
8477;BME280;4275;42.854;23.222;2022-08-19T01:36:12;81853.88;;;-141.02;100.00
8477;BME280;4275;42.854;23.222;2022-08-19T01:38:41;81857.75;;;-141.02;100.00
8477;BME280;4275;42.854;23.222;2022-08-19T01:41:12;81873.28;;;-141.02;100.00
8477;BME280;4275;42.854;23.222;2022-08-19T01:43:39;81888.81;;;-141.02;100.00
8477;BME280;4275;42.854;23.222;2022-08-19T01:46:06;81776.19;;;-141.02;100.00
8477;BME280;4275;42.854;23.222;2022-08-19T01:48:35;81881.06;;;-141.02;100.00
8477;BME280;4275;42.854;23.222;2022-08-19T01:51:02;82793.88;;;-141.02;100.00
8477;BME280;4275;42.854;23.222;2022-08-19T01:53:29;81706.28;;;-141.02;100.00
8477;BME280;4275;42.854;23.222;2022-08-19T01:55:56;81873.28;;;-141.02;100.00
8477;BME280;4275;42.854;23.222;2022-08-19T01:58:29;81582.03;;;-141.02;100.00
8477;BME280;4275;42.854;23.222;2022-08-19T02:00:59;81867.47;;;-141.02;100.00
8477;BME280;4275;42.854;23.222;2022-08-19T02:03:26;81873.28;;;-141.02;100.00
8477;BME280;4275;42.854;23.222;2022-08-19T02:05:56;81906.31;;;-141.02;100.00
8477;BME280;4275;42.854;23.222;2022-08-19T02:08:25;81884.94;;;-141.02;100.00
8477;BME280;4275;42.854;23.222;2022-08-19T02:10:52;81881.06;;;-141.02;100.00
8477;BME280;4275;42.854;23.222;2022-08-19T02:13:20;81912.13;;;-141.02;100.00
8477;BME280;4275;42.854;23.222;2022-08-19T02:15:49;81888.81;;;-141.02;100.00
8477;BME280;4275;42.854;23.222;2022-08-19T02:18:16;81962.63;;;-141.02;100.00
8477;BME280;4275;42.854;23.222;2022-08-19T02:20:43;81966.50;;;-141.02;100.00
8477;BME280;4275;42.854;23.222;2022-08-19T02:23:13;81787.84;;;-141.02;100.00
8477;BME280;4275;42.854;23.222;2022-08-19T02:25:41;81939.31;;;-141.02;100.00
8477;BME280;4275;42.854;23.222;2022-08-19T02:28:09;81982.03;;;-141.02;100.00
8477;BME280;4275;42.854;23.222;2022-08-19T02:30:37;81931.53;;;-141.02;100.00
8477;BME280;4275;42.854;23.222;2022-08-19T02:33:06;81923.78;;;-141.02;100.00
8477;BME280;4275;42.854;23.222;2022-08-19T02:35:33;81923.78;;;-141.02;100.00
8477;BME280;4275;42.854;23.222;2022-08-19T02:38:00;81871.34;;;-141.02;100.00
8477;BME280;4275;42.854;23.222;2022-08-19T02:40:49;81929.59;;;-141.02;100.00
8477;BME280;4275;42.854;23.222;2022-08-19T02:43:18;81927.66;;;-141.02;100.00
8477;BME280;4275;42.854;23.222;2022-08-19T02:45:45;81943.19;;;-141.02;100.00
8477;BME280;4275;42.854;23.222;2022-08-19T02:48:15;81910.19;;;-141.02;100.00
8477;BME280;4275;42.854;23.222;2022-08-19T02:50:44;81904.34;;;-141.02;100.00
8477;BME280;4275;42.854;23.222;2022-08-19T02:53:11;81954.84;;;-141.02;100.00
8477;BME280;4275;42.854;23.222;2022-08-19T02:55:43;81904.34;;;-141.02;100.00
8477;BME280;4275;42.854;23.222;2022-08-19T02:58:11;81886.88;;;-141.02;100.00
8477;BME280;4275;42.854;23.222;2022-08-19T03:00:43;81900.47;;;-141.02;100.00
8477;BME280;4275;42.854;23.222;2022-08-19T03:03:10;81933.50;;;-141.02;100.00
8477;BME280;4275;42.854;23.222;2022-08-19T03:05:39;81935.44;;;-141.02;100.00
8477;BME280;4275;42.854;23.222;2022-08-19T03:08:07;81925.72;;;-141.02;100.00
8477;BME280;4275;42.854;23.222;2022-08-19T03:10:41;81958.72;;;-141.02;100.00
8477;BME280;4275;42.854;23.222;2022-08-19T03:13:11;81888.81;;;-141.02;100.00
8477;BME280;4275;42.854;23.222;2022-08-19T03:15:40;81954.84;;;-141.02;100.00
8477;BME280;4275;42.854;23.222;2022-08-19T03:18:08;81939.31;;;-141.02;100.00
8477;BME280;4275;42.854;23.222;2022-08-19T03:20:41;81881.06;;;-141.02;100.00
8477;BME280;4275;42.854;23.222;2022-08-19T03:23:09;81900.47;;;-141.02;100.00
8477;BME280;4275;42.854;23.222;2022-08-19T03:25:38;81818.91;;;-141.02;100.00
8477;BME280;4275;42.854;23.222;2022-08-19T03:28:06;81904.34;;;-141.02;100.00
8477;BME280;4275;42.854;23.222;2022-08-19T03:30:33;81947.09;;;-141.02;100.00
8477;BME280;4275;42.854;23.222;2022-08-19T03:33:00;81976.22;;;-141.02;100.00
8477;BME280;4275;42.854;23.222;2022-08-19T03:35:27;81974.28;;;-141.02;100.00
8477;BME280;4275;42.854;23.222;2022-08-19T03:37:55;81970.38;;;-141.02;100.00
8477;BME280;4275;42.854;23.222;2022-08-19T03:40:22;81943.19;;;-141.02;100.00
8477;BME280;4275;42.854;23.222;2022-08-19T03:42:49;81921.84;;;-141.02;100.00
8477;BME280;4275;42.854;23.222;2022-08-19T03:45:17;81898.53;;;-141.02;100.00
8477;BME280;4275;42.854;23.222;2022-08-19T03:47:45;81921.84;;;-141.02;100.00
8477;BME280;4275;42.854;23.222;2022-08-19T03:50:12;81954.84;;;-141.02;100.00
8477;BME280;4275;42.854;23.222;2022-08-19T03:52:39;81900.47;;;-141.02;100.00
8477;BME280;4275;42.854;23.222;2022-08-19T03:55:08;81898.53;;;-141.02;100.00
8477;BME280;4275;42.854;23.222;2022-08-19T03:57:35;81919.91;;;-141.02;100.00
8477;BME280;4275;42.854;23.222;2022-08-19T04:00:03;81888.81;;;-141.02;100.00
8477;BME280;4275;42.854;23.222;2022-08-19T04:02:32;81904.34;;;-141.02;100.00
8477;BME280;4275;42.854;23.222;2022-08-19T04:04:59;81884.94;;;-141.02;100.00
8477;BME280;4275;42.854;23.222;2022-08-19T04:07:26;81857.75;;;-141.02;100.00
8477;BME280;4275;42.854;23.222;2022-08-19T04:09:53;81807.25;;;-141.02;100.00
8477;BME280;4275;42.854;23.222;2022-08-19T04:12:22;81774.25;;;-141.02;98.64
8477;BME280;4275;42.854;23.222;2022-08-19T04:14:49;81787.84;;;-141.02;96.77
8477;BME280;4275;42.854;23.222;2022-08-19T04:17:16;81683.00;;;-141.02;94.72
8477;BME280;4275;42.854;23.222;2022-08-19T04:19:43;81702.41;;;-141.02;92.41
8477;BME280;4275;42.854;23.222;2022-08-19T04:22:10;81630.56;;;-141.02;88.80
8477;BME280;4275;42.854;23.222;2022-08-19T04:24:38;81574.25;;;-141.02;85.70
8477;BME280;4275;42.854;23.222;2022-08-19T04:27:05;81541.25;;;-141.02;83.88
8477;BME280;4275;42.854;23.222;2022-08-19T04:29:33;81519.88;;;-141.02;81.21
8477;BME280;4275;42.854;23.222;2022-08-19T04:32:01;81549.00;;;-141.02;82.40
8477;BME280;4275;42.854;23.222;2022-08-19T04:34:29;81508.22;;;-141.02;80.25
8477;BME280;4275;42.854;23.222;2022-08-19T04:36:57;81448.03;;;-141.02;77.70
8477;BME280;4275;42.854;23.222;2022-08-19T04:39:27;81514.06;;;-141.02;80.19
8477;BME280;4275;42.854;23.222;2022-08-19T04:42:09;81558.72;;;-141.02;82.60
8477;BME280;4275;42.854;23.222;2022-08-19T04:44:55;81475.22;;;-141.02;80.28
8477;BME280;4275;42.854;23.222;2022-08-19T04:47:22;81444.16;;;-141.02;80.19
8477;BME280;4275;42.854;23.222;2022-08-19T04:49:49;81426.69;;;-141.02;79.47
8477;BME280;4275;42.854;23.222;2022-08-19T04:52:16;81488.81;;;-141.02;80.47
8477;BME280;4275;42.854;23.222;2022-08-19T04:54:43;81543.19;;;-141.02;81.31
8477;BME280;4275;42.854;23.222;2022-08-19T04:57:10;81519.88;;;-141.02;82.49
8477;BME280;4275;42.854;23.222;2022-08-19T04:59:38;81496.59;;;-141.02;81.15
8477;BME280;4275;42.854;23.222;2022-08-19T05:02:08;81475.22;;;-141.02;81.57
8477;BME280;4275;42.854;23.222;2022-08-19T05:04:36;81527.66;;;-141.02;81.82
8477;BME280;4275;42.854;23.222;2022-08-19T05:07:05;81523.75;;;-141.02;82.02
8477;BME280;4275;42.854;23.222;2022-08-19T05:09:32;81500.47;;;-141.02;81.21
8477;BME280;4275;42.854;23.222;2022-08-19T05:11:59;81512.13;;;-141.02;83.27
8477;BME280;4275;42.854;23.222;2022-08-19T05:14:26;81504.34;;;-141.02;83.24
8477;BME280;4275;42.854;23.222;2022-08-19T05:16:54;81527.66;;;-141.02;83.12
8477;BME280;4275;42.854;23.222;2022-08-19T05:19:23;81516.00;;;-141.02;83.23
8477;BME280;4275;42.854;23.222;2022-08-19T05:22:07;81533.47;;;-141.02;83.82
8477;BME280;4275;42.854;23.222;2022-08-19T05:24:52;81910.19;;;-141.02;81.85
8477;BME280;4275;42.854;23.222;2022-08-19T05:27:19;81465.50;;;-141.02;80.16
8477;BME280;4275;42.854;23.222;2022-08-19T05:29:46;81471.34;;;-141.02;79.82
8477;BME280;4275;42.854;23.222;2022-08-19T05:32:13;81438.34;;;-141.02;79.94
8477;BME280;4275;42.854;23.222;2022-08-19T05:34:41;81426.69;;;-141.02;78.40
8477;BME280;4275;42.854;23.222;2022-08-19T05:37:10;81411.16;;;-141.02;79.03
8477;BME280;4275;42.854;23.222;2022-08-19T05:39:37;81438.34;;;-141.02;79.66
8477;BME280;4275;42.854;23.222;2022-08-19T05:42:08;81411.16;;;-141.02;78.74
8477;BME280;4275;42.854;23.222;2022-08-19T05:44:37;81409.22;;;-141.02;78.04
8477;BME280;4275;42.854;23.222;2022-08-19T05:47:06;81350.97;;;-141.02;77.34
8477;BME280;4275;42.854;23.222;2022-08-19T05:49:35;81395.63;;;-141.02;77.54
8477;BME280;4275;42.854;23.222;2022-08-19T05:52:07;81401.44;;;-141.02;77.94
8477;BME280;4275;42.854;23.222;2022-08-19T05:54:36;81399.50;;;-141.02;76.73
8477;BME280;4275;42.854;23.222;2022-08-19T05:57:05;81401.44;;;-141.02;77.29
8477;BME280;4275;42.854;23.222;2022-08-19T05:59:33;81383.97;;;-141.02;76.63
8477;BME280;4275;42.854;23.222;2022-08-19T06:02:01;81383.97;;;-141.02;75.84
8477;BME280;4275;42.854;23.222;2022-08-19T06:04:28;81354.84;;;-141.02;75.57
8477;BME280;4275;42.854;23.222;2022-08-19T06:06:55;81362.59;;;-141.02;74.70
8477;BME280;4275;42.854;23.222;2022-08-19T06:09:25;81316.00;;;-141.02;73.84
8477;BME280;4275;42.854;23.222;2022-08-19T06:11:54;81275.25;;;-141.02;73.36
8477;BME280;4275;42.854;23.222;2022-08-19T06:14:26;81238.34;;;-141.02;71.90
8477;BME280;4275;42.854;23.222;2022-08-19T06:16:54;81255.81;;;-141.02;70.52
8477;BME280;4275;42.854;23.222;2022-08-19T06:19:22;81234.47;;;-141.02;69.03
8477;BME280;4275;42.854;23.222;2022-08-19T06:21:52;81217.00;;;-141.02;68.95
8477;BME280;4275;42.854;23.222;2022-08-19T06:24:21;81215.06;;;-141.02;68.51
8477;BME280;4275;42.854;23.222;2022-08-19T06:26:52;81217.00;;;-141.02;68.25
8477;BME280;4275;42.854;23.222;2022-08-19T06:29:22;81203.41;;;-141.02;67.58
8477;BME280;4275;42.854;23.222;2022-08-19T06:31:52;81158.75;;;-141.02;66.00
8477;BME280;4275;42.854;23.222;2022-08-19T06:34:20;81129.63;;;-141.02;66.00
8477;BME280;4275;42.854;23.222;2022-08-19T06:36:50;81162.63;;;-141.02;64.83
8477;BME280;4275;42.854;23.222;2022-08-19T06:39:20;81135.44;;;-141.02;65.58
8477;BME280;4275;42.854;23.222;2022-08-19T06:41:48;81110.22;;;-141.02;64.79
8477;BME280;4275;42.854;23.222;2022-08-19T06:44:18;80904.41;;;-141.02;63.38
8477;BME280;4275;42.854;23.222;2022-08-19T06:46:46;81042.25;;;-141.02;62.38
8477;BME280;4275;42.854;23.222;2022-08-19T06:49:14;81034.50;;;-141.02;62.07
8477;BME280;4275;42.854;23.222;2022-08-19T06:51:42;81007.31;;;-141.02;62.01
8477;BME280;4275;42.854;23.222;2022-08-19T06:54:10;81003.44;;;-141.02;61.85
8477;BME280;4275;42.854;23.222;2022-08-19T06:56:37;81005.38;;;-141.02;61.55
8477;BME280;4275;42.854;23.222;2022-08-19T06:59:07;80964.59;;;-141.02;61.29
8477;BME280;4275;42.854;23.222;2022-08-19T07:01:37;80970.44;;;-141.02;60.79
8477;BME280;4275;42.854;23.222;2022-08-19T07:04:06;80960.72;;;-141.02;59.93
8477;BME280;4275;42.854;23.222;2022-08-19T07:06:34;80918.00;;;-141.02;59.72
8477;BME280;4275;42.854;23.222;2022-08-19T07:09:03;80894.72;;;-141.02;59.14
8477;BME280;4275;42.854;23.222;2022-08-19T07:11:30;80921.91;;;-141.02;59.29
8477;BME280;4275;42.854;23.222;2022-08-19T07:13:58;80832.59;;;-141.02;57.95
8477;BME280;4275;42.854;23.222;2022-08-19T07:16:25;80791.81;;;-141.02;56.33
8477;BME280;4275;42.854;23.222;2022-08-19T07:18:55;80797.66;;;-141.02;56.21
8477;BME280;4275;42.854;23.222;2022-08-19T07:21:24;80801.53;;;-141.02;56.35
8477;BME280;4275;42.854;23.222;2022-08-19T07:23:53;80756.88;;;-141.02;55.92
8477;BME280;4275;42.854;23.222;2022-08-19T07:26:22;80696.69;;;-141.02;55.14
8477;BME280;4275;42.854;23.222;2022-08-19T07:28:50;80720.00;;;-141.02;55.31
8477;BME280;4275;42.854;23.222;2022-08-19T07:31:19;80772.41;;;-141.02;55.67
8477;BME280;4275;42.854;23.222;2022-08-19T07:33:49;80687.00;;;-141.02;54.88
8477;BME280;4275;42.854;23.222;2022-08-19T07:36:20;80735.53;;;-141.02;54.20
8477;BME280;4275;42.854;23.222;2022-08-19T07:38:50;80562.75;;;-141.02;53.84
8477;BME280;4275;42.854;23.222;2022-08-19T07:41:21;80650.13;;;-141.02;54.31
8477;BME280;4275;42.854;23.222;2022-08-19T07:43:49;80595.75;;;-141.02;53.34
8477;BME280;4275;42.854;23.222;2022-08-19T07:46:17;80613.22;;;-141.02;53.31
8477;BME280;4275;42.854;23.222;2022-08-19T07:48:46;80533.66;;;-141.02;53.60
8477;BME280;4275;42.854;23.222;2022-08-19T07:51:16;80483.16;;;-141.02;52.96
8477;BME280;4275;42.854;23.222;2022-08-19T07:53:45;80560.81;;;-141.02;52.87
8477;BME280;4275;42.854;23.222;2022-08-19T07:56:14;80545.28;;;-141.02;52.72
8477;BME280;4275;42.854;23.222;2022-08-19T07:58:43;80479.28;;;-141.02;51.54
8477;BME280;4275;42.854;23.222;2022-08-19T08:01:12;80314.31;;;-141.02;50.93
8477;BME280;4275;42.854;23.222;2022-08-19T08:03:41;80436.59;;;-141.02;50.64
8477;BME280;4275;42.854;23.222;2022-08-19T08:06:25;80487.06;;;-141.02;51.28
8477;BME280;4275;42.854;23.222;2022-08-19T08:09:13;80477.34;;;-141.02;51.02
8477;BME280;4275;42.854;23.222;2022-08-19T08:11:49;80454.06;;;-141.02;50.93
8477;BME280;4275;42.854;23.222;2022-08-19T08:14:19;80397.75;;;-141.02;50.53
8477;BME280;4275;42.854;23.222;2022-08-19T08:16:47;80366.72;;;-141.02;50.50
8477;BME280;4275;42.854;23.222;2022-08-19T08:19:17;80308.47;;;-141.02;49.66
8477;BME280;4275;42.854;23.222;2022-08-19T08:21:44;80362.81;;;-141.02;49.70
8477;BME280;4275;42.854;23.222;2022-08-19T08:24:12;80339.53;;;-141.02;49.86
8477;BME280;4275;42.854;23.222;2022-08-19T08:26:40;80277.41;;;-141.02;49.14
8477;BME280;4275;42.854;23.222;2022-08-19T08:29:08;80252.19;;;-141.02;48.88
8477;BME280;4275;42.854;23.222;2022-08-19T08:31:37;80261.91;;;-141.02;48.79
8477;BME280;4275;42.854;23.222;2022-08-19T08:34:04;80127.97;;;-141.02;47.69
8477;BME280;4275;42.854;23.222;2022-08-19T08:36:31;80079.44;;;-141.02;46.78
8477;BME280;4275;42.854;23.222;2022-08-19T08:38:59;80098.84;;;-141.02;46.81
8477;BME280;4275;42.854;23.222;2022-08-19T08:41:32;80098.84;;;-141.02;46.46
8477;BME280;4275;42.854;23.222;2022-08-19T08:44:03;80106.63;;;-141.02;46.92
8477;BME280;4275;42.854;23.222;2022-08-19T08:46:36;80106.63;;;-141.02;46.47
8477;BME280;4275;42.854;23.222;2022-08-19T08:49:21;80075.56;;;-141.02;46.53
8477;BME280;4275;42.854;23.222;2022-08-19T08:51:53;80102.75;;;-141.02;46.40
8477;BME280;4275;42.854;23.222;2022-08-19T08:54:24;80192.03;;;-141.02;46.99
8477;BME280;4275;42.854;23.222;2022-08-19T08:56:53;80112.44;;;-141.02;46.30
8477;BME280;4275;42.854;23.222;2022-08-19T08:59:23;80021.22;;;-141.02;45.71
8477;BME280;4275;42.854;23.222;2022-08-19T09:01:52;80083.31;;;-141.02;45.60
8477;BME280;4275;42.854;23.222;2022-08-19T09:04:19;80023.16;;;-141.02;45.38
8477;BME280;4275;42.854;23.222;2022-08-19T09:06:53;79928.06;;;-141.02;44.15
8477;BME280;4275;42.854;23.222;2022-08-19T09:09:26;79891.19;;;-141.02;44.09
8477;BME280;4275;42.854;23.222;2022-08-19T09:12:06;79829.09;;;-141.02;43.10
8477;BME280;4275;42.854;23.222;2022-08-19T09:14:45;79881.47;;;-141.02;43.42
8477;BME280;4275;42.854;23.222;2022-08-19T09:17:14;79924.19;;;-141.02;44.18
8477;BME280;4275;42.854;23.222;2022-08-19T09:19:51;79978.53;;;-141.02;44.88
8477;BME280;4275;42.854;23.222;2022-08-19T09:22:18;79889.25;;;-141.02;44.18
8477;BME280;4275;42.854;23.222;2022-08-19T09:24:48;79877.59;;;-141.02;43.76
8477;BME280;4275;42.854;23.222;2022-08-19T09:27:17;79865.97;;;-141.02;43.39
8477;BME280;4275;42.854;23.222;2022-08-19T09:29:44;79784.44;;;-141.02;42.85
8477;BME280;4275;42.854;23.222;2022-08-19T09:32:14;79852.38;;;-141.02;43.51
8477;BME280;4275;42.854;23.222;2022-08-19T09:34:41;79794.16;;;-141.02;42.92
8477;BME280;4275;42.854;23.222;2022-08-19T09:37:09;79864.00;;;-141.02;43.55
8477;BME280;4275;42.854;23.222;2022-08-19T09:39:37;79695.16;;;-141.02;42.51
8477;BME280;4275;42.854;23.222;2022-08-19T09:42:04;79675.75;;;-141.02;41.95
8477;BME280;4275;42.854;23.222;2022-08-19T09:44:37;79660.25;;;-141.02;41.56
8477;BME280;4275;42.854;23.222;2022-08-19T09:47:04;79714.59;;;-141.02;42.08
8477;BME280;4275;42.854;23.222;2022-08-19T09:49:31;79745.63;;;-141.02;42.14
8477;BME280;4275;42.854;23.222;2022-08-19T09:51:58;79732.03;;;-141.02;42.32
8477;BME280;4275;42.854;23.222;2022-08-19T09:54:26;79681.59;;;-141.02;42.12
8477;BME280;4275;42.854;23.222;2022-08-19T09:56:54;79883.41;;;-141.02;43.21
8477;BME280;4275;42.854;23.222;2022-08-19T09:59:22;79673.81;;;-141.02;42.11
8477;BME280;4275;42.854;23.222;2022-08-19T10:01:51;79702.94;;;-141.02;41.95
8477;BME280;4275;42.854;23.222;2022-08-19T10:04:18;79741.75;;;-141.02;42.02
8477;BME280;4275;42.854;23.222;2022-08-19T10:06:47;79617.56;;;-141.02;41.41
8477;BME280;4275;42.854;23.222;2022-08-19T10:09:17;79534.09;;;-141.02;40.79
8477;BME280;4275;42.854;23.222;2022-08-19T10:11:44;79590.38;;;-141.02;40.94
8477;BME280;4275;42.854;23.222;2022-08-19T10:14:13;79532.16;;;-141.02;40.81
8477;BME280;4275;42.854;23.222;2022-08-19T10:16:40;79629.19;;;-141.02;40.93
8477;BME280;4275;42.854;23.222;2022-08-19T10:19:09;79648.59;;;-141.02;41.42
8477;BME280;4275;42.854;23.222;2022-08-19T10:21:36;79734.00;;;-141.02;42.04
8477;BME280;4275;42.854;23.222;2022-08-19T10:24:05;79675.75;;;-141.02;41.43
8477;BME280;4275;42.854;23.222;2022-08-19T10:26:35;79629.19;;;-141.02;41.00
8477;BME280;4275;42.854;23.222;2022-08-19T10:29:04;79536.03;;;-141.02;40.65
8477;BME280;4275;42.854;23.222;2022-08-19T10:31:32;79514.69;;;-141.02;40.76
8477;BME280;4275;42.854;23.222;2022-08-19T10:34:00;79582.63;;;-141.02;40.91
8477;BME280;4275;42.854;23.222;2022-08-19T10:36:31;79629.19;;;-141.02;41.20
8477;BME280;4275;42.854;23.222;2022-08-19T10:38:59;79609.78;;;-141.02;41.10
8477;BME280;4275;42.854;23.222;2022-08-19T10:41:30;79547.69;;;-141.02;40.58
8477;BME280;4275;42.854;23.222;2022-08-19T10:43:59;79524.41;;;-141.02;40.42
8477;BME280;4275;42.854;23.222;2022-08-19T10:46:27;79497.22;;;-141.02;40.45
8477;BME280;4275;42.854;23.222;2022-08-19T10:48:58;79503.06;;;-141.02;40.41
8477;BME280;4275;42.854;23.222;2022-08-19T10:51:25;79537.97;;;-141.02;40.56
8477;BME280;4275;42.854;23.222;2022-08-19T10:54:11;79400.19;;;-141.02;39.92
8477;BME280;4275;42.854;23.222;2022-08-19T10:56:38;79413.78;;;-141.02;40.02
8477;BME280;4275;42.854;23.222;2022-08-19T10:59:22;79458.41;;;-141.02;40.22
8477;BME280;4275;42.854;23.222;2022-08-19T11:01:50;79345.88;;;-141.02;40.24
8477;BME280;4275;42.854;23.222;2022-08-19T11:04:19;79229.44;;;-141.02;40.07
8477;BME280;4275;42.854;23.222;2022-08-19T11:06:48;79516.63;;;-141.02;40.73
8477;BME280;4275;42.854;23.222;2022-08-19T11:09:20;79594.25;;;-141.02;41.25
8477;BME280;4275;42.854;23.222;2022-08-19T11:11:49;79475.88;;;-141.02;40.37
8477;BME280;4275;42.854;23.222;2022-08-19T11:14:19;79648.59;;;-141.02;41.16
8477;BME280;4275;42.854;23.222;2022-08-19T11:16:48;79536.03;;;-141.02;40.76
8477;BME280;4275;42.854;23.222;2022-08-19T11:19:16;79419.63;;;-141.02;40.00
8477;BME280;4275;42.854;23.222;2022-08-19T11:21:46;79384.69;;;-141.02;39.57
8477;BME280;4275;42.854;23.222;2022-08-19T11:24:18;79388.56;;;-141.02;39.65
8477;BME280;4275;42.854;23.222;2022-08-19T11:26:47;79384.69;;;-141.02;39.87
8477;BME280;4275;42.854;23.222;2022-08-19T11:29:16;79396.31;;;-141.02;39.71
8477;BME280;4275;42.854;23.222;2022-08-19T11:31:46;79309.00;;;-141.02;39.56
8477;BME280;4275;42.854;23.222;2022-08-19T11:34:16;79303.19;;;-141.02;39.33
8477;BME280;4275;42.854;23.222;2022-08-19T11:36:45;79458.41;;;-141.02;40.18
8477;BME280;4275;42.854;23.222;2022-08-19T11:39:16;79454.53;;;-141.02;40.30
8477;BME280;4275;42.854;23.222;2022-08-19T11:41:45;79425.44;;;-141.02;40.06
8477;BME280;4275;42.854;23.222;2022-08-19T11:44:12;79361.41;;;-141.02;39.65
8477;BME280;4275;42.854;23.222;2022-08-19T11:46:41;79244.97;;;-141.02;39.10
8477;BME280;4275;42.854;23.222;2022-08-19T11:49:11;79233.31;;;-141.02;38.58
8477;BME280;4275;42.854;23.222;2022-08-19T11:51:38;79213.91;;;-141.02;38.96
8477;BME280;4275;42.854;23.222;2022-08-19T11:54:05;79419.63;;;-141.02;39.96
8477;BME280;4275;42.854;23.222;2022-08-19T11:56:32;79285.72;;;-141.02;39.22
8477;BME280;4275;42.854;23.222;2022-08-19T11:59:01;79272.13;;;-141.02;39.30
8477;BME280;4275;42.854;23.222;2022-08-19T12:01:28;79221.69;;;-141.02;38.62
8477;BME280;4275;42.854;23.222;2022-08-19T12:03:56;79268.25;;;-141.02;39.14
8477;BME280;4275;42.854;23.222;2022-08-19T12:06:26;79338.09;;;-141.02;39.41
8477;BME280;4275;42.854;23.222;2022-08-19T12:08:54;79287.66;;;-141.02;39.41
8477;BME280;4275;42.854;23.222;2022-08-19T12:11:21;79246.91;;;-141.02;39.05
8477;BME280;4275;42.854;23.222;2022-08-19T12:13:48;79285.72;;;-141.02;39.40
8477;BME280;4275;42.854;23.222;2022-08-19T12:16:20;79297.34;;;-141.02;39.48
8477;BME280;4275;42.854;23.222;2022-08-19T12:18:49;79237.22;;;-141.02;38.93
8477;BME280;4275;42.854;23.222;2022-08-19T12:21:19;79227.50;;;-141.02;39.16
8477;BME280;4275;42.854;23.222;2022-08-19T12:23:48;79237.22;;;-141.02;39.19
8477;BME280;4275;42.854;23.222;2022-08-19T12:26:16;79229.44;;;-141.02;39.23
8477;BME280;4275;42.854;23.222;2022-08-19T12:28:44;79171.22;;;-141.02;38.92
8477;BME280;4275;42.854;23.222;2022-08-19T12:31:11;79283.78;;;-141.02;39.22
8477;BME280;4275;42.854;23.222;2022-08-19T12:33:40;79330.34;;;-141.02;39.64
8477;BME280;4275;42.854;23.222;2022-08-19T12:36:09;79279.91;;;-141.02;39.26
8477;BME280;4275;42.854;23.222;2022-08-19T12:38:38;79361.41;;;-141.02;40.04
8477;BME280;4275;42.854;23.222;2022-08-19T12:41:05;79233.31;;;-141.02;39.04
8477;BME280;4275;42.854;23.222;2022-08-19T12:43:33;79198.41;;;-141.02;39.09
8477;BME280;4275;42.854;23.222;2022-08-19T12:46:00;79184.81;;;-141.02;39.19
8477;BME280;4275;42.854;23.222;2022-08-19T12:48:28;79122.72;;;-141.02;38.58
8477;BME280;4275;42.854;23.222;2022-08-19T12:50:56;79107.19;;;-141.02;38.54
8477;BME280;4275;42.854;23.222;2022-08-19T12:53:23;79043.16;;;-141.02;38.17
8477;BME280;4275;42.854;23.222;2022-08-19T12:55:55;79017.94;;;-141.02;37.88
8477;BME280;4275;42.854;23.222;2022-08-19T12:58:23;78961.69;;;-141.02;37.51